sensor_id;sensor_type;location;lat;lon;timestamp;P1;durP1;ratioP1;P2;durP2;ratioP2
7767;SDS011;3928;42.626;23.382;2023-02-12T00:00:13;9.47;;;7.60;;
7767;SDS011;3928;42.626;23.382;2023-02-12T00:02:40;11.67;;;8.67;;
7767;SDS011;3928;42.626;23.382;2023-02-12T00:05:09;12.00;;;8.43;;
7767;SDS011;3928;42.626;23.382;2023-02-12T00:07:35;11.43;;;8.27;;
7767;SDS011;3928;42.626;23.382;2023-02-12T00:10:02;11.90;;;8.63;;
7767;SDS011;3928;42.626;23.382;2023-02-12T00:12:30;18.23;;;9.67;;
7767;SDS011;3928;42.626;23.382;2023-02-12T00:14:56;10.70;;;7.40;;
7767;SDS011;3928;42.626;23.382;2023-02-12T00:17:23;11.47;;;8.27;;
7767;SDS011;3928;42.626;23.382;2023-02-12T00:19:50;13.50;;;8.03;;
7767;SDS011;3928;42.626;23.382;2023-02-12T00:22:18;10.43;;;7.57;;
7767;SDS011;3928;42.626;23.382;2023-02-12T00:24:45;12.17;;;8.63;;
7767;SDS011;3928;42.626;23.382;2023-02-12T00:27:12;12.00;;;7.73;;
7767;SDS011;3928;42.626;23.382;2023-02-12T00:29:38;14.13;;;8.17;;
7767;SDS011;3928;42.626;23.382;2023-02-12T00:32:05;12.60;;;8.17;;
7767;SDS011;3928;42.626;23.382;2023-02-12T00:34:32;15.73;;;8.30;;
7767;SDS011;3928;42.626;23.382;2023-02-12T00:36:59;11.90;;;7.50;;
7767;SDS011;3928;42.626;23.382;2023-02-12T00:39:27;12.03;;;8.17;;
7767;SDS011;3928;42.626;23.382;2023-02-12T00:41:55;12.27;;;7.67;;
7767;SDS011;3928;42.626;23.382;2023-02-12T00:44:22;12.50;;;7.90;;
7767;SDS011;3928;42.626;23.382;2023-02-12T00:46:49;11.37;;;8.40;;
7767;SDS011;3928;42.626;23.382;2023-02-12T00:49:15;11.90;;;8.00;;
7767;SDS011;3928;42.626;23.382;2023-02-12T00:51:44;12.23;;;7.73;;
7767;SDS011;3928;42.626;23.382;2023-02-12T00:54:11;12.10;;;8.13;;
7767;SDS011;3928;42.626;23.382;2023-02-12T00:56:39;10.27;;;7.00;;
7767;SDS011;3928;42.626;23.382;2023-02-12T00:59:06;12.17;;;8.70;;
7767;SDS011;3928;42.626;23.382;2023-02-12T01:01:33;11.27;;;8.63;;
7767;SDS011;3928;42.626;23.382;2023-02-12T01:04:00;11.97;;;8.30;;
7767;SDS011;3928;42.626;23.382;2023-02-12T01:06:26;12.37;;;7.53;;
7767;SDS011;3928;42.626;23.382;2023-02-12T01:08:53;18.43;;;7.97;;
7767;SDS011;3928;42.626;23.382;2023-02-12T01:11:20;16.43;;;8.27;;
7767;SDS011;3928;42.626;23.382;2023-02-12T01:13:48;13.27;;;7.50;;
7767;SDS011;3928;42.626;23.382;2023-02-12T01:16:15;13.07;;;8.50;;
7767;SDS011;3928;42.626;23.382;2023-02-12T01:18:43;13.30;;;8.10;;
7767;SDS011;3928;42.626;23.382;2023-02-12T01:21:12;13.20;;;8.17;;
7767;SDS011;3928;42.626;23.382;2023-02-12T01:23:40;12.10;;;7.07;;
7767;SDS011;3928;42.626;23.382;2023-02-12T01:26:08;13.07;;;8.13;;
7767;SDS011;3928;42.626;23.382;2023-02-12T01:28:36;12.30;;;8.27;;
7767;SDS011;3928;42.626;23.382;2023-02-12T01:31:08;14.87;;;8.80;;
7767;SDS011;3928;42.626;23.382;2023-02-12T01:33:35;14.93;;;8.37;;
7767;SDS011;3928;42.626;23.382;2023-02-12T01:36:02;12.53;;;7.87;;
7767;SDS011;3928;42.626;23.382;2023-02-12T01:38:29;14.03;;;8.43;;
7767;SDS011;3928;42.626;23.382;2023-02-12T01:41:00;13.53;;;8.67;;
7767;SDS011;3928;42.626;23.382;2023-02-12T01:43:28;14.23;;;9.17;;
7767;SDS011;3928;42.626;23.382;2023-02-12T01:45:58;13.33;;;8.53;;
7767;SDS011;3928;42.626;23.382;2023-02-12T01:48:27;14.03;;;9.10;;
7767;SDS011;3928;42.626;23.382;2023-02-12T01:50:56;12.60;;;9.53;;
7767;SDS011;3928;42.626;23.382;2023-02-12T01:53:28;12.10;;;9.00;;
7767;SDS011;3928;42.626;23.382;2023-02-12T01:56:01;12.23;;;8.57;;
7767;SDS011;3928;42.626;23.382;2023-02-12T01:58:29;11.93;;;8.27;;
7767;SDS011;3928;42.626;23.382;2023-02-12T02:01:00;11.77;;;8.77;;
7767;SDS011;3928;42.626;23.382;2023-02-12T02:03:30;14.47;;;9.23;;
7767;SDS011;3928;42.626;23.382;2023-02-12T02:05:58;11.80;;;7.80;;
7767;SDS011;3928;42.626;23.382;2023-02-12T02:08:28;13.13;;;9.53;;
7767;SDS011;3928;42.626;23.382;2023-02-12T02:10:55;13.00;;;9.13;;
7767;SDS011;3928;42.626;23.382;2023-02-12T02:13:22;15.53;;;9.07;;
7767;SDS011;3928;42.626;23.382;2023-02-12T02:16:09;13.53;;;8.70;;
7767;SDS011;3928;42.626;23.382;2023-02-12T02:18:47;13.03;;;8.37;;
7767;SDS011;3928;42.626;23.382;2023-02-12T02:21:28;12.47;;;8.70;;
7767;SDS011;3928;42.626;23.382;2023-02-12T02:24:22;14.00;;;8.33;;
7767;SDS011;3928;42.626;23.382;2023-02-12T02:27:06;16.37;;;10.20;;
7767;SDS011;3928;42.626;23.382;2023-02-12T02:29:46;13.53;;;8.70;;
7767;SDS011;3928;42.626;23.382;2023-02-12T02:32:38;13.07;;;8.47;;
7767;SDS011;3928;42.626;23.382;2023-02-12T02:35:09;13.07;;;9.00;;
7767;SDS011;3928;42.626;23.382;2023-02-12T02:37:42;13.93;;;9.37;;
7767;SDS011;3928;42.626;23.382;2023-02-12T02:40:13;12.67;;;8.37;;
7767;SDS011;3928;42.626;23.382;2023-02-12T02:42:45;12.70;;;9.13;;
7767;SDS011;3928;42.626;23.382;2023-02-12T02:45:19;13.00;;;8.47;;
7767;SDS011;3928;42.626;23.382;2023-02-12T02:47:54;13.23;;;9.47;;
7767;SDS011;3928;42.626;23.382;2023-02-12T02:50:26;15.20;;;9.60;;
7767;SDS011;3928;42.626;23.382;2023-02-12T02:52:56;14.17;;;9.20;;
7767;SDS011;3928;42.626;23.382;2023-02-12T02:55:27;14.27;;;8.77;;
7767;SDS011;3928;42.626;23.382;2023-02-12T02:58:01;16.83;;;10.53;;
7767;SDS011;3928;42.626;23.382;2023-02-12T03:00:36;16.77;;;9.73;;
7767;SDS011;3928;42.626;23.382;2023-02-12T03:03:06;14.20;;;9.37;;
7767;SDS011;3928;42.626;23.382;2023-02-12T03:05:38;16.83;;;9.73;;
7767;SDS011;3928;42.626;23.382;2023-02-12T03:08:09;18.23;;;10.67;;
7767;SDS011;3928;42.626;23.382;2023-02-12T03:10:41;15.17;;;9.77;;
7767;SDS011;3928;42.626;23.382;2023-02-12T03:13:13;15.33;;;9.70;;
7767;SDS011;3928;42.626;23.382;2023-02-12T03:15:48;15.63;;;10.13;;
7767;SDS011;3928;42.626;23.382;2023-02-12T03:18:20;15.43;;;10.43;;
7767;SDS011;3928;42.626;23.382;2023-02-12T03:20:54;18.07;;;10.50;;
7767;SDS011;3928;42.626;23.382;2023-02-12T03:23:26;13.43;;;9.73;;
7767;SDS011;3928;42.626;23.382;2023-02-12T03:25:58;20.03;;;12.07;;
7767;SDS011;3928;42.626;23.382;2023-02-12T03:28:31;17.57;;;11.20;;
7767;SDS011;3928;42.626;23.382;2023-02-12T03:31:10;17.37;;;11.47;;
7767;SDS011;3928;42.626;23.382;2023-02-12T03:33:48;16.53;;;11.47;;
7767;SDS011;3928;42.626;23.382;2023-02-12T03:36:25;20.67;;;11.93;;
7767;SDS011;3928;42.626;23.382;2023-02-12T03:39:03;18.73;;;11.47;;
7767;SDS011;3928;42.626;23.382;2023-02-12T03:41:38;17.43;;;11.40;;
7767;SDS011;3928;42.626;23.382;2023-02-12T03:44:13;18.53;;;11.43;;
7767;SDS011;3928;42.626;23.382;2023-02-12T03:46:53;20.27;;;12.40;;
7767;SDS011;3928;42.626;23.382;2023-02-12T03:49:27;18.97;;;11.87;;
7767;SDS011;3928;42.626;23.382;2023-02-12T03:51:57;18.60;;;12.23;;
7767;SDS011;3928;42.626;23.382;2023-02-12T03:54:24;19.70;;;12.00;;
7767;SDS011;3928;42.626;23.382;2023-02-12T03:56:52;23.27;;;13.57;;
7767;SDS011;3928;42.626;23.382;2023-02-12T03:59:23;23.30;;;13.37;;
7767;SDS011;3928;42.626;23.382;2023-02-12T04:01:53;21.67;;;14.23;;
7767;SDS011;3928;42.626;23.382;2023-02-12T04:04:23;19.77;;;12.43;;
7767;SDS011;3928;42.626;23.382;2023-02-12T04:06:51;20.43;;;13.20;;
7767;SDS011;3928;42.626;23.382;2023-02-12T04:09:19;20.53;;;11.87;;
7767;SDS011;3928;42.626;23.382;2023-02-12T04:11:54;21.00;;;13.90;;
7767;SDS011;3928;42.626;23.382;2023-02-12T04:14:32;20.60;;;13.37;;
7767;SDS011;3928;42.626;23.382;2023-02-12T04:17:11;22.13;;;12.97;;
7767;SDS011;3928;42.626;23.382;2023-02-12T04:19:47;19.63;;;13.20;;
7767;SDS011;3928;42.626;23.382;2023-02-12T04:22:22;19.03;;;12.70;;
7767;SDS011;3928;42.626;23.382;2023-02-12T04:25:02;20.50;;;12.40;;
7767;SDS011;3928;42.626;23.382;2023-02-12T04:27:38;21.47;;;12.63;;
7767;SDS011;3928;42.626;23.382;2023-02-12T04:30:15;19.07;;;12.30;;
7767;SDS011;3928;42.626;23.382;2023-02-12T04:32:49;18.87;;;12.43;;
7767;SDS011;3928;42.626;23.382;2023-02-12T04:35:21;22.73;;;12.77;;
7767;SDS011;3928;42.626;23.382;2023-02-12T04:37:54;18.87;;;12.60;;
7767;SDS011;3928;42.626;23.382;2023-02-12T04:40:24;21.23;;;13.77;;
7767;SDS011;3928;42.626;23.382;2023-02-12T04:42:51;25.10;;;15.37;;
7767;SDS011;3928;42.626;23.382;2023-02-12T04:45:20;27.83;;;18.13;;
7767;SDS011;3928;42.626;23.382;2023-02-12T04:47:50;29.50;;;18.73;;
7767;SDS011;3928;42.626;23.382;2023-02-12T04:50:17;30.87;;;18.73;;
7767;SDS011;3928;42.626;23.382;2023-02-12T04:52:44;33.10;;;20.27;;
7767;SDS011;3928;42.626;23.382;2023-02-12T04:55:12;29.70;;;18.53;;
7767;SDS011;3928;42.626;23.382;2023-02-12T04:57:38;26.60;;;17.40;;
7767;SDS011;3928;42.626;23.382;2023-02-12T05:00:07;27.83;;;17.97;;
7767;SDS011;3928;42.626;23.382;2023-02-12T05:02:37;28.33;;;17.63;;
7767;SDS011;3928;42.626;23.382;2023-02-12T05:05:06;25.63;;;17.10;;
7767;SDS011;3928;42.626;23.382;2023-02-12T05:07:33;24.70;;;17.90;;
7767;SDS011;3928;42.626;23.382;2023-02-12T05:09:59;28.83;;;18.80;;
7767;SDS011;3928;42.626;23.382;2023-02-12T05:12:29;30.60;;;18.13;;
7767;SDS011;3928;42.626;23.382;2023-02-12T05:14:56;34.20;;;16.87;;
7767;SDS011;3928;42.626;23.382;2023-02-12T05:17:23;29.53;;;17.33;;
7767;SDS011;3928;42.626;23.382;2023-02-12T05:19:50;29.37;;;17.27;;
7767;SDS011;3928;42.626;23.382;2023-02-12T05:22:18;26.40;;;16.47;;
7767;SDS011;3928;42.626;23.382;2023-02-12T05:24:45;27.43;;;15.13;;
7767;SDS011;3928;42.626;23.382;2023-02-12T05:27:12;21.03;;;14.20;;
7767;SDS011;3928;42.626;23.382;2023-02-12T05:29:39;25.83;;;15.70;;
7767;SDS011;3928;42.626;23.382;2023-02-12T05:32:06;20.00;;;12.50;;
7767;SDS011;3928;42.626;23.382;2023-02-12T05:34:33;18.57;;;11.73;;
7767;SDS011;3928;42.626;23.382;2023-02-12T05:37:00;20.20;;;10.70;;
7767;SDS011;3928;42.626;23.382;2023-02-12T05:39:28;16.43;;;11.33;;
7767;SDS011;3928;42.626;23.382;2023-02-12T05:41:55;19.60;;;10.63;;
7767;SDS011;3928;42.626;23.382;2023-02-12T05:44:22;24.20;;;13.87;;
7767;SDS011;3928;42.626;23.382;2023-02-12T05:46:49;20.87;;;11.73;;
7767;SDS011;3928;42.626;23.382;2023-02-12T05:49:16;17.23;;;11.73;;
7767;SDS011;3928;42.626;23.382;2023-02-12T05:51:43;16.30;;;9.83;;
7767;SDS011;3928;42.626;23.382;2023-02-12T05:54:10;26.00;;;12.13;;
7767;SDS011;3928;42.626;23.382;2023-02-12T05:56:41;15.77;;;11.00;;
7767;SDS011;3928;42.626;23.382;2023-02-12T05:59:11;16.83;;;12.03;;
7767;SDS011;3928;42.626;23.382;2023-02-12T06:01:41;19.23;;;11.20;;
7767;SDS011;3928;42.626;23.382;2023-02-12T06:04:09;18.50;;;12.10;;
7767;SDS011;3928;42.626;23.382;2023-02-12T06:06:40;18.03;;;11.17;;
7767;SDS011;3928;42.626;23.382;2023-02-12T06:09:07;15.00;;;10.33;;
7767;SDS011;3928;42.626;23.382;2023-02-12T06:11:34;14.57;;;9.77;;
7767;SDS011;3928;42.626;23.382;2023-02-12T06:14:02;18.33;;;10.20;;
7767;SDS011;3928;42.626;23.382;2023-02-12T06:16:29;15.70;;;10.13;;
7767;SDS011;3928;42.626;23.382;2023-02-12T06:18:56;16.57;;;10.37;;
7767;SDS011;3928;42.626;23.382;2023-02-12T06:21:24;15.80;;;10.30;;
7767;SDS011;3928;42.626;23.382;2023-02-12T06:23:52;16.73;;;10.00;;
7767;SDS011;3928;42.626;23.382;2023-02-12T06:26:19;16.27;;;10.97;;
7767;SDS011;3928;42.626;23.382;2023-02-12T06:28:46;16.60;;;10.43;;
7767;SDS011;3928;42.626;23.382;2023-02-12T06:31:18;18.53;;;10.70;;
7767;SDS011;3928;42.626;23.382;2023-02-12T06:33:47;15.30;;;9.20;;
7767;SDS011;3928;42.626;23.382;2023-02-12T06:36:14;17.03;;;9.97;;
7767;SDS011;3928;42.626;23.382;2023-02-12T06:38:42;27.13;;;15.53;;
7767;SDS011;3928;42.626;23.382;2023-02-12T06:41:09;16.50;;;10.27;;
7767;SDS011;3928;42.626;23.382;2023-02-12T06:43:36;16.40;;;9.93;;
7767;SDS011;3928;42.626;23.382;2023-02-12T06:46:03;16.13;;;9.83;;
7767;SDS011;3928;42.626;23.382;2023-02-12T06:48:32;16.53;;;10.07;;
7767;SDS011;3928;42.626;23.382;2023-02-12T06:51:03;17.13;;;11.43;;
7767;SDS011;3928;42.626;23.382;2023-02-12T06:53:31;15.67;;;11.13;;
7767;SDS011;3928;42.626;23.382;2023-02-12T06:55:59;17.37;;;10.60;;
7767;SDS011;3928;42.626;23.382;2023-02-12T06:58:26;17.47;;;11.10;;
7767;SDS011;3928;42.626;23.382;2023-02-12T07:00:53;17.67;;;10.97;;
7767;SDS011;3928;42.626;23.382;2023-02-12T07:03:19;16.47;;;10.20;;
7767;SDS011;3928;42.626;23.382;2023-02-12T07:05:48;16.97;;;10.60;;
7767;SDS011;3928;42.626;23.382;2023-02-12T07:08:14;16.57;;;10.70;;
7767;SDS011;3928;42.626;23.382;2023-02-12T07:10:41;14.97;;;9.73;;
7767;SDS011;3928;42.626;23.382;2023-02-12T07:13:08;15.77;;;10.40;;
7767;SDS011;3928;42.626;23.382;2023-02-12T07:15:37;12.67;;;9.47;;
7767;SDS011;3928;42.626;23.382;2023-02-12T07:18:05;16.57;;;11.07;;
7767;SDS011;3928;42.626;23.382;2023-02-12T07:20:32;18.73;;;11.47;;
7767;SDS011;3928;42.626;23.382;2023-02-12T07:23:00;20.00;;;11.23;;
7767;SDS011;3928;42.626;23.382;2023-02-12T07:25:26;18.53;;;11.30;;
7767;SDS011;3928;42.626;23.382;2023-02-12T07:27:53;17.30;;;12.07;;
7767;SDS011;3928;42.626;23.382;2023-02-12T07:30:20;15.60;;;11.30;;
7767;SDS011;3928;42.626;23.382;2023-02-12T07:32:47;17.70;;;10.73;;
7767;SDS011;3928;42.626;23.382;2023-02-12T07:35:14;43.03;;;25.20;;
7767;SDS011;3928;42.626;23.382;2023-02-12T07:37:41;77.13;;;46.30;;
7767;SDS011;3928;42.626;23.382;2023-02-12T07:40:09;30.30;;;20.53;;
7767;SDS011;3928;42.626;23.382;2023-02-12T07:42:37;17.63;;;12.37;;
7767;SDS011;3928;42.626;23.382;2023-02-12T07:45:04;19.87;;;12.23;;
7767;SDS011;3928;42.626;23.382;2023-02-12T07:47:31;20.57;;;12.00;;
7767;SDS011;3928;42.626;23.382;2023-02-12T07:49:59;19.67;;;12.30;;
7767;SDS011;3928;42.626;23.382;2023-02-12T07:52:26;17.07;;;11.70;;
7767;SDS011;3928;42.626;23.382;2023-02-12T07:54:53;22.10;;;13.07;;
7767;SDS011;3928;42.626;23.382;2023-02-12T07:57:21;18.30;;;12.63;;
7767;SDS011;3928;42.626;23.382;2023-02-12T07:59:48;22.60;;;12.90;;
7767;SDS011;3928;42.626;23.382;2023-02-12T08:02:14;20.07;;;12.20;;
7767;SDS011;3928;42.626;23.382;2023-02-12T08:04:41;21.33;;;13.90;;
7767;SDS011;3928;42.626;23.382;2023-02-12T08:07:08;18.73;;;12.83;;
7767;SDS011;3928;42.626;23.382;2023-02-12T08:09:35;19.47;;;13.00;;
7767;SDS011;3928;42.626;23.382;2023-02-12T08:12:01;29.70;;;14.20;;
7767;SDS011;3928;42.626;23.382;2023-02-12T08:14:30;21.97;;;14.37;;
7767;SDS011;3928;42.626;23.382;2023-02-12T08:16:56;52.97;;;33.13;;
7767;SDS011;3928;42.626;23.382;2023-02-12T08:19:23;29.63;;;19.77;;
7767;SDS011;3928;42.626;23.382;2023-02-12T08:21:50;41.53;;;26.03;;
7767;SDS011;3928;42.626;23.382;2023-02-12T08:24:17;29.83;;;22.00;;
7767;SDS011;3928;42.626;23.382;2023-02-12T08:26:46;25.10;;;16.50;;
7767;SDS011;3928;42.626;23.382;2023-02-12T08:29:14;21.13;;;13.93;;
7767;SDS011;3928;42.626;23.382;2023-02-12T08:31:44;22.40;;;13.63;;
7767;SDS011;3928;42.626;23.382;2023-02-12T08:34:15;35.47;;;21.40;;
7767;SDS011;3928;42.626;23.382;2023-02-12T08:36:43;24.70;;;14.30;;
7767;SDS011;3928;42.626;23.382;2023-02-12T08:39:10;20.27;;;13.80;;
7767;SDS011;3928;42.626;23.382;2023-02-12T08:41:38;22.43;;;14.67;;
7767;SDS011;3928;42.626;23.382;2023-02-12T08:44:06;23.00;;;14.47;;
7767;SDS011;3928;42.626;23.382;2023-02-12T08:46:34;31.03;;;15.13;;
7767;SDS011;3928;42.626;23.382;2023-02-12T08:49:04;22.40;;;14.20;;
7767;SDS011;3928;42.626;23.382;2023-02-12T08:51:33;22.57;;;13.93;;
7767;SDS011;3928;42.626;23.382;2023-02-12T08:54:02;18.73;;;13.30;;
7767;SDS011;3928;42.626;23.382;2023-02-12T08:56:30;22.47;;;14.20;;
7767;SDS011;3928;42.626;23.382;2023-02-12T08:58:58;23.43;;;15.07;;
7767;SDS011;3928;42.626;23.382;2023-02-12T09:01:27;23.73;;;15.00;;
7767;SDS011;3928;42.626;23.382;2023-02-12T09:03:55;21.30;;;14.43;;
7767;SDS011;3928;42.626;23.382;2023-02-12T09:06:24;20.93;;;14.47;;
7767;SDS011;3928;42.626;23.382;2023-02-12T09:08:51;19.87;;;13.43;;
7767;SDS011;3928;42.626;23.382;2023-02-12T09:11:20;21.77;;;13.77;;
7767;SDS011;3928;42.626;23.382;2023-02-12T09:13:50;23.00;;;14.63;;
7767;SDS011;3928;42.626;23.382;2023-02-12T09:16:18;24.03;;;15.17;;
7767;SDS011;3928;42.626;23.382;2023-02-12T09:18:45;23.57;;;14.33;;
7767;SDS011;3928;42.626;23.382;2023-02-12T09:21:12;21.77;;;13.07;;
7767;SDS011;3928;42.626;23.382;2023-02-12T09:23:42;18.13;;;13.60;;
7767;SDS011;3928;42.626;23.382;2023-02-12T09:26:10;40.50;;;24.50;;
7767;SDS011;3928;42.626;23.382;2023-02-12T09:28:39;24.17;;;16.50;;
7767;SDS011;3928;42.626;23.382;2023-02-12T09:31:06;21.23;;;14.23;;
7767;SDS011;3928;42.626;23.382;2023-02-12T09:33:34;21.33;;;14.43;;
7767;SDS011;3928;42.626;23.382;2023-02-12T09:36:01;23.13;;;14.90;;
7767;SDS011;3928;42.626;23.382;2023-02-12T09:38:28;22.20;;;14.10;;
7767;SDS011;3928;42.626;23.382;2023-02-12T09:41:02;24.00;;;16.23;;
7767;SDS011;3928;42.626;23.382;2023-02-12T09:44:01;23.87;;;14.70;;
7767;SDS011;3928;42.626;23.382;2023-02-12T09:46:35;27.43;;;15.23;;
7767;SDS011;3928;42.626;23.382;2023-02-12T09:49:12;25.20;;;16.03;;
7767;SDS011;3928;42.626;23.382;2023-02-12T09:51:44;24.40;;;15.93;;
7767;SDS011;3928;42.626;23.382;2023-02-12T09:54:18;27.37;;;16.53;;
7767;SDS011;3928;42.626;23.382;2023-02-12T09:56:49;25.10;;;16.50;;
7767;SDS011;3928;42.626;23.382;2023-02-12T09:59:20;23.87;;;15.53;;
7767;SDS011;3928;42.626;23.382;2023-02-12T10:01:57;27.30;;;17.40;;
7767;SDS011;3928;42.626;23.382;2023-02-12T10:04:24;25.73;;;16.20;;
7767;SDS011;3928;42.626;23.382;2023-02-12T10:06:54;21.97;;;15.67;;
7767;SDS011;3928;42.626;23.382;2023-02-12T10:09:36;25.77;;;16.27;;
7767;SDS011;3928;42.626;23.382;2023-02-12T10:12:19;25.87;;;15.80;;
7767;SDS011;3928;42.626;23.382;2023-02-12T10:15:00;29.50;;;17.93;;
7767;SDS011;3928;42.626;23.382;2023-02-12T10:17:39;26.90;;;16.37;;
7767;SDS011;3928;42.626;23.382;2023-02-12T10:23:22;26.53;;;17.30;;
7767;SDS011;3928;42.626;23.382;2023-02-12T10:25:58;29.47;;;17.23;;
7767;SDS011;3928;42.626;23.382;2023-02-12T10:28:33;30.70;;;19.23;;
7767;SDS011;3928;42.626;23.382;2023-02-12T10:31:05;33.03;;;18.93;;
7767;SDS011;3928;42.626;23.382;2023-02-12T10:33:38;29.87;;;20.77;;
7767;SDS011;3928;42.626;23.382;2023-02-12T10:36:11;32.77;;;20.13;;
7767;SDS011;3928;42.626;23.382;2023-02-12T10:38:49;32.73;;;18.50;;
7767;SDS011;3928;42.626;23.382;2023-02-12T10:41:20;31.57;;;18.93;;
7767;SDS011;3928;42.626;23.382;2023-02-12T10:43:51;28.90;;;19.30;;
7767;SDS011;3928;42.626;23.382;2023-02-12T10:46:18;36.03;;;21.73;;
7767;SDS011;3928;42.626;23.382;2023-02-12T10:48:45;29.53;;;20.53;;
7767;SDS011;3928;42.626;23.382;2023-02-12T10:51:28;35.10;;;20.77;;
7767;SDS011;3928;42.626;23.382;2023-02-12T10:57:07;36.80;;;19.63;;
7767;SDS011;3928;42.626;23.382;2023-02-12T10:59:39;33.93;;;21.47;;
7767;SDS011;3928;42.626;23.382;2023-02-12T11:02:23;37.00;;;22.50;;
7767;SDS011;3928;42.626;23.382;2023-02-12T11:04:53;36.30;;;22.13;;
7767;SDS011;3928;42.626;23.382;2023-02-12T11:07:22;36.63;;;21.97;;
7767;SDS011;3928;42.626;23.382;2023-02-12T11:09:50;31.67;;;21.60;;
7767;SDS011;3928;42.626;23.382;2023-02-12T11:12:20;31.33;;;20.33;;
7767;SDS011;3928;42.626;23.382;2023-02-12T11:14:56;33.90;;;21.57;;
7767;SDS011;3928;42.626;23.382;2023-02-12T11:17:26;39.17;;;21.27;;
7767;SDS011;3928;42.626;23.382;2023-02-12T11:20:07;34.37;;;22.27;;
7767;SDS011;3928;42.626;23.382;2023-02-12T11:22:54;32.70;;;21.80;;
7767;SDS011;3928;42.626;23.382;2023-02-12T11:25:23;36.60;;;22.67;;
7767;SDS011;3928;42.626;23.382;2023-02-12T11:28:00;29.70;;;20.27;;
7767;SDS011;3928;42.626;23.382;2023-02-12T11:30:31;36.70;;;21.57;;
7767;SDS011;3928;42.626;23.382;2023-02-12T11:33:13;30.60;;;21.17;;
7767;SDS011;3928;42.626;23.382;2023-02-12T11:35:48;29.33;;;19.70;;
7767;SDS011;3928;42.626;23.382;2023-02-12T11:38:21;33.93;;;21.77;;
7767;SDS011;3928;42.626;23.382;2023-02-12T11:40:52;37.80;;;23.10;;
7767;SDS011;3928;42.626;23.382;2023-02-12T11:43:22;34.17;;;22.07;;
7767;SDS011;3928;42.626;23.382;2023-02-12T11:45:51;30.63;;;20.47;;
7767;SDS011;3928;42.626;23.382;2023-02-12T11:48:22;29.33;;;20.53;;
7767;SDS011;3928;42.626;23.382;2023-02-12T11:50:52;33.00;;;20.10;;
7767;SDS011;3928;42.626;23.382;2023-02-12T11:53:22;30.83;;;21.60;;
7767;SDS011;3928;42.626;23.382;2023-02-12T11:55:52;38.23;;;22.43;;
7767;SDS011;3928;42.626;23.382;2023-02-12T11:58:22;34.40;;;22.70;;
7767;SDS011;3928;42.626;23.382;2023-02-12T12:00:52;34.27;;;21.60;;
7767;SDS011;3928;42.626;23.382;2023-02-12T12:03:25;34.73;;;20.63;;
7767;SDS011;3928;42.626;23.382;2023-02-12T12:05:55;30.97;;;21.57;;
7767;SDS011;3928;42.626;23.382;2023-02-12T12:08:27;30.27;;;20.47;;
7767;SDS011;3928;42.626;23.382;2023-02-12T12:11:03;32.00;;;20.43;;
7767;SDS011;3928;42.626;23.382;2023-02-12T12:13:38;30.33;;;19.80;;
7767;SDS011;3928;42.626;23.382;2023-02-12T12:16:12;33.20;;;21.60;;
7767;SDS011;3928;42.626;23.382;2023-02-12T12:19:01;33.20;;;21.93;;
7767;SDS011;3928;42.626;23.382;2023-02-12T12:21:53;31.47;;;20.87;;
7767;SDS011;3928;42.626;23.382;2023-02-12T12:24:29;32.53;;;20.63;;
7767;SDS011;3928;42.626;23.382;2023-02-12T12:27:07;33.53;;;21.20;;
7767;SDS011;3928;42.626;23.382;2023-02-12T12:30:04;34.30;;;19.93;;
7767;SDS011;3928;42.626;23.382;2023-02-12T12:32:42;32.47;;;21.60;;
7767;SDS011;3928;42.626;23.382;2023-02-12T12:35:13;31.33;;;20.23;;
7767;SDS011;3928;42.626;23.382;2023-02-12T12:37:44;29.43;;;20.13;;
7767;SDS011;3928;42.626;23.382;2023-02-12T12:40:22;29.07;;;20.87;;
7767;SDS011;3928;42.626;23.382;2023-02-12T12:43:01;33.80;;;21.30;;
7767;SDS011;3928;42.626;23.382;2023-02-12T12:45:41;30.77;;;20.27;;
7767;SDS011;3928;42.626;23.382;2023-02-12T12:48:27;35.37;;;22.37;;
7767;SDS011;3928;42.626;23.382;2023-02-12T12:51:16;33.40;;;20.97;;
7767;SDS011;3928;42.626;23.382;2023-02-12T12:53:58;30.30;;;20.60;;
7767;SDS011;3928;42.626;23.382;2023-02-12T12:56:38;33.10;;;20.63;;
7767;SDS011;3928;42.626;23.382;2023-02-12T12:59:19;32.83;;;22.97;;
7767;SDS011;3928;42.626;23.382;2023-02-12T13:05:04;30.23;;;20.37;;
7767;SDS011;3928;42.626;23.382;2023-02-12T13:07:57;38.93;;;22.33;;
7767;SDS011;3928;42.626;23.382;2023-02-12T13:10:34;28.33;;;19.33;;
7767;SDS011;3928;42.626;23.382;2023-02-12T13:13:08;34.47;;;20.20;;
7767;SDS011;3928;42.626;23.382;2023-02-12T13:15:45;33.60;;;20.77;;
7767;SDS011;3928;42.626;23.382;2023-02-12T13:18:21;34.47;;;21.03;;
7767;SDS011;3928;42.626;23.382;2023-02-12T13:20:57;30.60;;;21.40;;
7767;SDS011;3928;42.626;23.382;2023-02-12T13:23:33;33.67;;;22.23;;
7767;SDS011;3928;42.626;23.382;2023-02-12T13:26:08;30.93;;;21.33;;
7767;SDS011;3928;42.626;23.382;2023-02-12T13:28:42;33.47;;;21.00;;
7767;SDS011;3928;42.626;23.382;2023-02-12T13:31:15;34.23;;;21.60;;
7767;SDS011;3928;42.626;23.382;2023-02-12T13:33:46;30.70;;;21.87;;
7767;SDS011;3928;42.626;23.382;2023-02-12T13:36:18;33.60;;;21.40;;
7767;SDS011;3928;42.626;23.382;2023-02-12T13:38:45;27.67;;;20.73;;
7767;SDS011;3928;42.626;23.382;2023-02-12T13:41:16;29.53;;;20.07;;
7767;SDS011;3928;42.626;23.382;2023-02-12T13:43:48;32.60;;;21.20;;
7767;SDS011;3928;42.626;23.382;2023-02-12T13:46:27;32.20;;;20.40;;
7767;SDS011;3928;42.626;23.382;2023-02-12T13:49:02;34.33;;;22.33;;
7767;SDS011;3928;42.626;23.382;2023-02-12T13:51:40;31.80;;;21.27;;
7767;SDS011;3928;42.626;23.382;2023-02-12T13:54:12;37.23;;;24.17;;
7767;SDS011;3928;42.626;23.382;2023-02-12T13:56:47;28.93;;;20.97;;
7767;SDS011;3928;42.626;23.382;2023-02-12T14:05:02;34.00;;;22.70;;
7767;SDS011;3928;42.626;23.382;2023-02-12T14:07:42;34.27;;;22.33;;
7767;SDS011;3928;42.626;23.382;2023-02-12T14:10:18;31.63;;;21.43;;
7767;SDS011;3928;42.626;23.382;2023-02-12T14:12:46;36.27;;;23.17;;
7767;SDS011;3928;42.626;23.382;2023-02-12T14:15:22;33.37;;;21.77;;
7767;SDS011;3928;42.626;23.382;2023-02-12T14:18:06;33.17;;;21.73;;
7767;SDS011;3928;42.626;23.382;2023-02-12T14:20:48;34.50;;;22.60;;
7767;SDS011;3928;42.626;23.382;2023-02-12T14:27:29;37.03;;;23.43;;
7767;SDS011;3928;42.626;23.382;2023-02-12T14:32:57;36.37;;;23.77;;
7767;SDS011;3928;42.626;23.382;2023-02-12T14:39:04;36.43;;;23.30;;
7767;SDS011;3928;42.626;23.382;2023-02-12T14:41:54;38.73;;;24.27;;
7767;SDS011;3928;42.626;23.382;2023-02-12T14:44:47;34.60;;;23.30;;
7767;SDS011;3928;42.626;23.382;2023-02-12T14:50:21;36.93;;;24.50;;
7767;SDS011;3928;42.626;23.382;2023-02-12T14:52:53;40.37;;;25.27;;
7767;SDS011;3928;42.626;23.382;2023-02-12T14:55:31;40.93;;;24.07;;
7767;SDS011;3928;42.626;23.382;2023-02-12T14:58:01;38.77;;;24.77;;
7767;SDS011;3928;42.626;23.382;2023-02-12T15:00:33;37.10;;;25.23;;
7767;SDS011;3928;42.626;23.382;2023-02-12T15:03:06;42.27;;;26.07;;
7767;SDS011;3928;42.626;23.382;2023-02-12T15:05:44;40.23;;;23.70;;
7767;SDS011;3928;42.626;23.382;2023-02-12T15:08:17;38.20;;;25.30;;
7767;SDS011;3928;42.626;23.382;2023-02-12T15:10:53;38.27;;;24.00;;
7767;SDS011;3928;42.626;23.382;2023-02-12T15:13:25;37.57;;;25.43;;
7767;SDS011;3928;42.626;23.382;2023-02-12T15:15:56;40.80;;;24.97;;
7767;SDS011;3928;42.626;23.382;2023-02-12T15:18:32;38.90;;;26.20;;
7767;SDS011;3928;42.626;23.382;2023-02-12T15:21:11;36.33;;;25.67;;
7767;SDS011;3928;42.626;23.382;2023-02-12T15:23:45;36.40;;;24.37;;
7767;SDS011;3928;42.626;23.382;2023-02-12T15:26:13;40.17;;;25.07;;
7767;SDS011;3928;42.626;23.382;2023-02-12T15:28:44;37.57;;;25.23;;
7767;SDS011;3928;42.626;23.382;2023-02-12T15:31:15;41.13;;;25.90;;